createdAt,value
2023-04-02T00:12:56.205Z,62.33
2023-04-02T00:42:59.078Z,60.16
2023-04-02T01:13:02.470Z,60.74
2023-04-02T01:43:05.431Z,65.42
2023-04-02T02:13:08.408Z,65.63
2023-04-02T02:43:11.844Z,65.95
2023-04-02T03:13:16.243Z,58.21
2023-04-02T03:43:19.828Z,61.49
2023-04-02T04:13:23.008Z,64.13
2023-04-02T04:43:26.281Z,60.10
2023-04-02T05:13:30.075Z,60.00
2023-04-02T05:43:33.835Z,60.51
2023-04-02T06:13:37.200Z,55.30
2023-04-02T06:43:40.587Z,54.13
2023-04-02T07:13:43.505Z,55.14
2023-04-02T07:43:46.768Z,55.79
2023-04-02T08:13:50.199Z,53.37
2023-04-02T08:43:53.755Z,52.82
2023-04-02T09:13:57.571Z,55.66
2023-04-02T09:44:00.953Z,64.38
2023-04-02T10:14:04.414Z,63.35
2023-04-02T10:44:18.873Z,62.84
2023-04-02T11:14:23.606Z,61.89
2023-04-02T11:44:26.833Z,59.91
2023-04-02T12:14:30.122Z,61.69
2023-04-02T12:44:33.427Z,58.90
2023-04-02T13:14:36.398Z,61.48
2023-04-02T13:44:39.645Z,55.10
2023-04-02T14:14:43.695Z,54.06
2023-04-02T14:44:46.492Z,51.66
2023-04-02T15:14:50.711Z,59.24
2023-04-02T15:44:53.668Z,58.23
2023-04-02T16:14:57.929Z,58.37
2023-04-02T16:45:00.778Z,57.00
2023-04-02T17:15:09.332Z,56.57
2023-04-02T17:45:17.212Z,55.99
2023-04-02T18:15:21.663Z,55.81
2023-04-02T18:45:24.537Z,53.80
2023-04-02T19:15:28.259Z,51.68
2023-04-02T19:45:31.151Z,51.12
2023-04-02T20:15:34.535Z,51.91
2023-04-02T20:45:38.177Z,50.43
2023-04-02T21:15:41.189Z,50.71
2023-04-02T21:45:44.160Z,55.12
2023-04-02T22:15:47.582Z,50.01
2023-04-02T22:45:50.418Z,52.94
2023-04-02T23:15:53.648Z,50.83
2023-04-02T23:45:57.258Z,53.73
